sensor_id;sensor_type;location;lat;lon;timestamp;P1;durP1;ratioP1;P2;durP2;ratioP2
13048;SDS011;6591;51.446;5.404;2023-07-24T00:01:57;3.92;;;2.03;;
13048;SDS011;6591;51.446;5.404;2023-07-24T00:05:38;2.58;;;2.13;;
13048;SDS011;6591;51.446;5.404;2023-07-24T00:08:05;3.17;;;2.67;;
13048;SDS011;6591;51.446;5.404;2023-07-24T00:10:33;2.80;;;2.20;;
13048;SDS011;6591;51.446;5.404;2023-07-24T00:13:00;3.53;;;2.10;;
13048;SDS011;6591;51.446;5.404;2023-07-24T00:15:27;4.70;;;2.60;;
13048;SDS011;6591;51.446;5.404;2023-07-24T00:17:55;3.65;;;2.90;;
13048;SDS011;6591;51.446;5.404;2023-07-24T00:20:22;4.15;;;3.00;;
13048;SDS011;6591;51.446;5.404;2023-07-24T00:22:50;2.97;;;2.67;;
13048;SDS011;6591;51.446;5.404;2023-07-24T00:25:17;3.67;;;2.70;;
13048;SDS011;6591;51.446;5.404;2023-07-24T00:27:45;3.30;;;2.53;;
13048;SDS011;6591;51.446;5.404;2023-07-24T00:30:12;2.90;;;2.60;;
13048;SDS011;6591;51.446;5.404;2023-07-24T00:32:39;3.95;;;2.30;;
13048;SDS011;6591;51.446;5.404;2023-07-24T00:35:06;3.10;;;2.35;;
13048;SDS011;6591;51.446;5.404;2023-07-24T00:37:33;3.03;;;2.58;;
13048;SDS011;6591;51.446;5.404;2023-07-24T00:40:01;3.75;;;2.50;;
13048;SDS011;6591;51.446;5.404;2023-07-24T00:42:30;2.97;;;2.38;;
13048;SDS011;6591;51.446;5.404;2023-07-24T00:44:57;2.75;;;2.50;;
13048;SDS011;6591;51.446;5.404;2023-07-24T00:47:25;2.90;;;2.60;;
13048;SDS011;6591;51.446;5.404;2023-07-24T00:49:54;3.97;;;2.75;;
13048;SDS011;6591;51.446;5.404;2023-07-24T00:52:22;4.20;;;2.85;;
13048;SDS011;6591;51.446;5.404;2023-07-24T00:54:50;3.40;;;2.47;;
13048;SDS011;6591;51.446;5.404;2023-07-24T00:57:17;4.68;;;2.50;;
13048;SDS011;6591;51.446;5.404;2023-07-24T00:59:45;11.30;;;3.20;;
13048;SDS011;6591;51.446;5.404;2023-07-24T01:02:13;6.13;;;2.90;;
13048;SDS011;6591;51.446;5.404;2023-07-24T01:04:41;6.90;;;2.78;;
13048;SDS011;6591;51.446;5.404;2023-07-24T01:07:08;6.70;;;2.78;;
13048;SDS011;6591;51.446;5.404;2023-07-24T01:09:35;3.65;;;2.72;;
13048;SDS011;6591;51.446;5.404;2023-07-24T01:15:06;3.10;;;2.65;;
13048;SDS011;6591;51.446;5.404;2023-07-24T01:18:08;3.50;;;2.78;;
13048;SDS011;6591;51.446;5.404;2023-07-24T01:20:42;3.40;;;3.03;;
13048;SDS011;6591;51.446;5.404;2023-07-24T01:26:30;3.70;;;3.30;;
13048;SDS011;6591;51.446;5.404;2023-07-24T01:29:01;3.85;;;3.00;;
13048;SDS011;6591;51.446;5.404;2023-07-24T01:31:30;3.53;;;2.83;;
13048;SDS011;6591;51.446;5.404;2023-07-24T01:33:58;3.97;;;2.95;;
13048;SDS011;6591;51.446;5.404;2023-07-24T01:36:28;4.68;;;3.13;;
13048;SDS011;6591;51.446;5.404;2023-07-24T01:39:03;3.47;;;2.83;;
13048;SDS011;6591;51.446;5.404;2023-07-24T01:41:36;5.93;;;3.38;;
13048;SDS011;6591;51.446;5.404;2023-07-24T01:44:10;5.40;;;3.28;;
13048;SDS011;6591;51.446;5.404;2023-07-24T01:46:37;7.15;;;3.47;;
13048;SDS011;6591;51.446;5.404;2023-07-24T01:49:07;5.38;;;3.70;;
13048;SDS011;6591;51.446;5.404;2023-07-24T01:51:35;4.60;;;3.63;;
13048;SDS011;6591;51.446;5.404;2023-07-24T01:54:05;4.18;;;3.78;;
13048;SDS011;6591;51.446;5.404;2023-07-24T01:56:35;4.03;;;3.63;;
13048;SDS011;6591;51.446;5.404;2023-07-24T01:59:04;4.45;;;3.83;;
13048;SDS011;6591;51.446;5.404;2023-07-24T02:01:32;4.55;;;3.38;;
13048;SDS011;6591;51.446;5.404;2023-07-24T02:03:59;4.20;;;3.80;;
13048;SDS011;6591;51.446;5.404;2023-07-24T02:06:27;5.38;;;4.53;;
13048;SDS011;6591;51.446;5.404;2023-07-24T02:08:54;6.43;;;4.60;;
13048;SDS011;6591;51.446;5.404;2023-07-24T02:11:22;5.20;;;4.47;;
13048;SDS011;6591;51.446;5.404;2023-07-24T02:13:49;5.35;;;4.78;;
13048;SDS011;6591;51.446;5.404;2023-07-24T02:16:22;4.65;;;4.15;;
13048;SDS011;6591;51.446;5.404;2023-07-24T02:18:49;4.68;;;3.95;;
13048;SDS011;6591;51.446;5.404;2023-07-24T02:21:16;5.22;;;4.32;;
13048;SDS011;6591;51.446;5.404;2023-07-24T02:23:45;3.75;;;3.40;;
13048;SDS011;6591;51.446;5.404;2023-07-24T02:26:12;4.75;;;3.45;;
13048;SDS011;6591;51.446;5.404;2023-07-24T02:28:39;3.70;;;3.40;;
13048;SDS011;6591;51.446;5.404;2023-07-24T02:31:06;4.13;;;3.50;;
13048;SDS011;6591;51.446;5.404;2023-07-24T02:33:33;4.88;;;3.58;;
13048;SDS011;6591;51.446;5.404;2023-07-24T02:36:00;3.53;;;3.08;;
13048;SDS011;6591;51.446;5.404;2023-07-24T02:38:28;5.38;;;3.28;;
13048;SDS011;6591;51.446;5.404;2023-07-24T02:40:55;6.45;;;2.95;;
13048;SDS011;6591;51.446;5.404;2023-07-24T02:43:22;6.88;;;2.90;;
13048;SDS011;6591;51.446;5.404;2023-07-24T02:45:49;3.55;;;2.78;;
13048;SDS011;6591;51.446;5.404;2023-07-24T02:48:16;4.75;;;2.80;;
13048;SDS011;6591;51.446;5.404;2023-07-24T02:50:44;2.70;;;2.30;;
13048;SDS011;6591;51.446;5.404;2023-07-24T02:53:13;2.97;;;2.45;;
13048;SDS011;6591;51.446;5.404;2023-07-24T02:55:43;2.55;;;2.35;;
13048;SDS011;6591;51.446;5.404;2023-07-24T02:58:12;4.05;;;2.38;;
13048;SDS011;6591;51.446;5.404;2023-07-24T03:00:40;2.75;;;2.30;;
13048;SDS011;6591;51.446;5.404;2023-07-24T03:03:07;2.47;;;2.28;;
13048;SDS011;6591;51.446;5.404;2023-07-24T03:05:34;5.45;;;2.35;;
13048;SDS011;6591;51.446;5.404;2023-07-24T03:08:01;2.58;;;2.10;;
13048;SDS011;6591;51.446;5.404;2023-07-24T03:10:29;3.25;;;1.92;;
13048;SDS011;6591;51.446;5.404;2023-07-24T03:12:56;2.30;;;1.92;;
13048;SDS011;6591;51.446;5.404;2023-07-24T03:15:23;2.15;;;1.95;;
13048;SDS011;6591;51.446;5.404;2023-07-24T03:17:50;3.78;;;2.45;;
13048;SDS011;6591;51.446;5.404;2023-07-24T03:20:20;2.30;;;2.10;;
13048;SDS011;6591;51.446;5.404;2023-07-24T03:22:48;2.97;;;2.00;;
13048;SDS011;6591;51.446;5.404;2023-07-24T03:25:15;4.25;;;1.90;;
13048;SDS011;6591;51.446;5.404;2023-07-24T03:27:43;5.07;;;2.25;;
13048;SDS011;6591;51.446;5.404;2023-07-24T03:30:13;2.42;;;1.98;;
13048;SDS011;6591;51.446;5.404;2023-07-24T03:32:40;2.35;;;2.03;;
13048;SDS011;6591;51.446;5.404;2023-07-24T03:35:07;2.55;;;1.67;;
13048;SDS011;6591;51.446;5.404;2023-07-24T03:37:49;2.10;;;1.90;;
13048;SDS011;6591;51.446;5.404;2023-07-24T03:40:28;2.50;;;2.30;;
13048;SDS011;6591;51.446;5.404;2023-07-24T03:43:31;2.30;;;2.10;;
13048;SDS011;6591;51.446;5.404;2023-07-24T03:46:02;2.70;;;2.50;;
13048;SDS011;6591;51.446;5.404;2023-07-24T03:48:29;2.92;;;2.63;;
13048;SDS011;6591;51.446;5.404;2023-07-24T03:50:57;2.92;;;2.47;;
13048;SDS011;6591;51.446;5.404;2023-07-24T03:53:30;4.35;;;2.78;;
13048;SDS011;6591;51.446;5.404;2023-07-24T03:56:08;3.65;;;2.10;;
13048;SDS011;6591;51.446;5.404;2023-07-24T03:58:36;2.20;;;1.98;;
13048;SDS011;6591;51.446;5.404;2023-07-24T04:01:06;2.10;;;1.90;;
13048;SDS011;6591;51.446;5.404;2023-07-24T04:03:34;2.60;;;2.30;;
13048;SDS011;6591;51.446;5.404;2023-07-24T04:06:02;2.50;;;2.20;;
13048;SDS011;6591;51.446;5.404;2023-07-24T04:08:29;3.60;;;3.30;;
13048;SDS011;6591;51.446;5.404;2023-07-24T04:10:56;3.78;;;3.40;;
13048;SDS011;6591;51.446;5.404;2023-07-24T04:13:23;3.70;;;2.88;;
13048;SDS011;6591;51.446;5.404;2023-07-24T04:15:50;3.45;;;3.10;;
13048;SDS011;6591;51.446;5.404;2023-07-24T04:18:18;3.40;;;3.10;;
13048;SDS011;6591;51.446;5.404;2023-07-24T04:20:45;4.43;;;3.35;;
13048;SDS011;6591;51.446;5.404;2023-07-24T04:23:12;3.63;;;3.05;;
13048;SDS011;6591;51.446;5.404;2023-07-24T04:25:39;2.90;;;2.60;;
13048;SDS011;6591;51.446;5.404;2023-07-24T04:28:06;4.40;;;2.92;;
13048;SDS011;6591;51.446;5.404;2023-07-24T04:30:33;3.10;;;2.80;;
13048;SDS011;6591;51.446;5.404;2023-07-24T04:33:00;3.60;;;2.80;;
13048;SDS011;6591;51.446;5.404;2023-07-24T04:35:27;2.88;;;2.67;;
13048;SDS011;6591;51.446;5.404;2023-07-24T04:37:54;2.78;;;2.58;;
13048;SDS011;6591;51.446;5.404;2023-07-24T04:40:23;3.20;;;2.47;;
13048;SDS011;6591;51.446;5.404;2023-07-24T04:42:50;2.97;;;2.67;;
13048;SDS011;6591;51.446;5.404;2023-07-24T04:45:17;2.67;;;2.40;;
13048;SDS011;6591;51.446;5.404;2023-07-24T04:47:48;2.75;;;2.28;;
13048;SDS011;6591;51.446;5.404;2023-07-24T04:50:15;2.45;;;2.25;;
13048;SDS011;6591;51.446;5.404;2023-07-24T04:52:42;2.50;;;2.30;;
13048;SDS011;6591;51.446;5.404;2023-07-24T04:55:09;3.38;;;2.95;;
13048;SDS011;6591;51.446;5.404;2023-07-24T04:57:36;3.10;;;2.80;;
13048;SDS011;6591;51.446;5.404;2023-07-24T05:00:03;2.50;;;2.30;;
13048;SDS011;6591;51.446;5.404;2023-07-24T05:02:32;2.50;;;2.30;;
13048;SDS011;6591;51.446;5.404;2023-07-24T05:04:59;2.55;;;2.35;;
13048;SDS011;6591;51.446;5.404;2023-07-24T05:07:26;3.55;;;3.25;;
13048;SDS011;6591;51.446;5.404;2023-07-24T05:09:53;3.22;;;2.53;;
13048;SDS011;6591;51.446;5.404;2023-07-24T05:12:20;2.90;;;2.55;;
13048;SDS011;6591;51.446;5.404;2023-07-24T05:14:47;3.28;;;2.97;;
13048;SDS011;6591;51.446;5.404;2023-07-24T05:17:14;3.67;;;2.83;;
13048;SDS011;6591;51.446;5.404;2023-07-24T05:19:42;4.35;;;2.90;;
13048;SDS011;6591;51.446;5.404;2023-07-24T05:22:09;3.50;;;3.20;;
13048;SDS011;6591;51.446;5.404;2023-07-24T05:24:37;3.53;;;3.22;;
13048;SDS011;6591;51.446;5.404;2023-07-24T05:27:04;3.45;;;3.15;;
13048;SDS011;6591;51.446;5.404;2023-07-24T05:29:39;2.63;;;2.42;;
13048;SDS011;6591;51.446;5.404;2023-07-24T05:32:06;3.40;;;3.10;;
13048;SDS011;6591;51.446;5.404;2023-07-24T05:34:39;3.63;;;3.33;;
13048;SDS011;6591;51.446;5.404;2023-07-24T05:37:09;4.20;;;3.80;;
13048;SDS011;6591;51.446;5.404;2023-07-24T05:39:37;3.70;;;3.40;;
13048;SDS011;6591;51.446;5.404;2023-07-24T05:42:10;3.20;;;2.90;;
13048;SDS011;6591;51.446;5.404;2023-07-24T05:44:40;3.17;;;2.88;;
13048;SDS011;6591;51.446;5.404;2023-07-24T05:47:08;3.28;;;2.97;;
13048;SDS011;6591;51.446;5.404;2023-07-24T05:49:38;3.85;;;2.90;;
13048;SDS011;6591;51.446;5.404;2023-07-24T05:52:08;2.97;;;2.70;;
13048;SDS011;6591;51.446;5.404;2023-07-24T05:54:39;3.70;;;3.40;;
13048;SDS011;6591;51.446;5.404;2023-07-24T05:57:06;3.55;;;3.25;;
13048;SDS011;6591;51.446;5.404;2023-07-24T05:59:34;4.97;;;2.80;;
13048;SDS011;6591;51.446;5.404;2023-07-24T06:02:04;3.78;;;2.90;;
13048;SDS011;6591;51.446;5.404;2023-07-24T06:04:32;3.20;;;2.90;;
13048;SDS011;6591;51.446;5.404;2023-07-24T06:06:59;3.00;;;2.70;;
13048;SDS011;6591;51.446;5.404;2023-07-24T06:09:26;3.00;;;2.70;;
13048;SDS011;6591;51.446;5.404;2023-07-24T06:11:53;3.30;;;2.85;;
13048;SDS011;6591;51.446;5.404;2023-07-24T06:14:20;3.15;;;2.67;;
13048;SDS011;6591;51.446;5.404;2023-07-24T06:16:47;2.80;;;2.58;;
13048;SDS011;6591;51.446;5.404;2023-07-24T06:19:15;2.60;;;2.40;;
13048;SDS011;6591;51.446;5.404;2023-07-24T06:21:42;2.53;;;2.33;;
13048;SDS011;6591;51.446;5.404;2023-07-24T06:24:09;2.97;;;2.60;;
13048;SDS011;6591;51.446;5.404;2023-07-24T06:26:39;3.75;;;2.38;;
13048;SDS011;6591;51.446;5.404;2023-07-24T06:29:06;2.90;;;2.58;;
13048;SDS011;6591;51.446;5.404;2023-07-24T06:31:36;2.65;;;2.35;;
13048;SDS011;6591;51.446;5.404;2023-07-24T06:34:04;3.00;;;2.70;;
13048;SDS011;6591;51.446;5.404;2023-07-24T06:36:34;2.90;;;2.70;;
13048;SDS011;6591;51.446;5.404;2023-07-24T06:39:02;4.38;;;3.30;;
13048;SDS011;6591;51.446;5.404;2023-07-24T06:41:29;3.17;;;2.97;;
13048;SDS011;6591;51.446;5.404;2023-07-24T06:43:58;2.85;;;2.65;;
13048;SDS011;6591;51.446;5.404;2023-07-24T06:46:25;3.05;;;2.60;;
13048;SDS011;6591;51.446;5.404;2023-07-24T06:48:52;3.25;;;2.95;;
13048;SDS011;6591;51.446;5.404;2023-07-24T06:51:19;3.17;;;2.88;;
13048;SDS011;6591;51.446;5.404;2023-07-24T06:53:53;3.28;;;2.97;;
13048;SDS011;6591;51.446;5.404;2023-07-24T06:56:20;2.55;;;2.30;;
13048;SDS011;6591;51.446;5.404;2023-07-24T06:58:51;3.22;;;2.95;;
13048;SDS011;6591;51.446;5.404;2023-07-24T07:01:18;2.88;;;2.67;;
13048;SDS011;6591;51.446;5.404;2023-07-24T07:03:45;3.30;;;3.00;;
13048;SDS011;6591;51.446;5.404;2023-07-24T07:06:12;4.50;;;3.58;;
13048;SDS011;6591;51.446;5.404;2023-07-24T07:08:42;3.60;;;3.22;;
13048;SDS011;6591;51.446;5.404;2023-07-24T07:11:09;4.00;;;3.40;;
13048;SDS011;6591;51.446;5.404;2023-07-24T07:13:37;4.30;;;2.78;;
13048;SDS011;6591;51.446;5.404;2023-07-24T07:16:04;3.28;;;2.97;;
13048;SDS011;6591;51.446;5.404;2023-07-24T07:18:31;3.33;;;3.00;;
13048;SDS011;6591;51.446;5.404;2023-07-24T07:20:58;3.50;;;3.13;;
13048;SDS011;6591;51.446;5.404;2023-07-24T07:23:27;3.30;;;3.00;;
13048;SDS011;6591;51.446;5.404;2023-07-24T07:25:54;5.75;;;3.28;;
13048;SDS011;6591;51.446;5.404;2023-07-24T07:28:21;3.63;;;3.33;;
13048;SDS011;6591;51.446;5.404;2023-07-24T07:30:48;3.38;;;3.08;;
13048;SDS011;6591;51.446;5.404;2023-07-24T07:33:16;3.90;;;3.50;;
13048;SDS011;6591;51.446;5.404;2023-07-24T07:35:43;3.40;;;3.10;;
13048;SDS011;6591;51.446;5.404;2023-07-24T07:38:10;3.60;;;3.25;;
13048;SDS011;6591;51.446;5.404;2023-07-24T07:40:37;3.72;;;3.42;;
13048;SDS011;6591;51.446;5.404;2023-07-24T07:43:05;4.13;;;3.72;;
13048;SDS011;6591;51.446;5.404;2023-07-24T07:45:32;4.15;;;3.75;;
13048;SDS011;6591;51.446;5.404;2023-07-24T07:47:59;3.97;;;3.25;;
13048;SDS011;6591;51.446;5.404;2023-07-24T07:50:26;4.00;;;3.47;;
13048;SDS011;6591;51.446;5.404;2023-07-24T07:52:53;3.50;;;3.20;;
13048;SDS011;6591;51.446;5.404;2023-07-24T07:55:20;3.85;;;3.45;;
13048;SDS011;6591;51.446;5.404;2023-07-24T07:57:48;3.72;;;3.40;;
13048;SDS011;6591;51.446;5.404;2023-07-24T08:00:15;4.95;;;3.20;;
13048;SDS011;6591;51.446;5.404;2023-07-24T08:02:45;3.70;;;3.40;;
13048;SDS011;6591;51.446;5.404;2023-07-24T08:05:13;4.22;;;3.83;;
13048;SDS011;6591;51.446;5.404;2023-07-24T08:07:46;4.30;;;3.90;;
13048;SDS011;6591;51.446;5.404;2023-07-24T08:10:15;4.38;;;3.65;;
13048;SDS011;6591;51.446;5.404;2023-07-24T08:12:43;3.50;;;3.15;;
13048;SDS011;6591;51.446;5.404;2023-07-24T08:15:10;3.53;;;3.20;;
13048;SDS011;6591;51.446;5.404;2023-07-24T08:17:38;3.70;;;3.40;;
13048;SDS011;6591;51.446;5.404;2023-07-24T08:20:05;3.65;;;3.35;;
13048;SDS011;6591;51.446;5.404;2023-07-24T08:22:33;5.68;;;3.60;;
13048;SDS011;6591;51.446;5.404;2023-07-24T08:25:00;4.22;;;3.55;;
13048;SDS011;6591;51.446;5.404;2023-07-24T08:27:27;4.07;;;3.05;;
13048;SDS011;6591;51.446;5.404;2023-07-24T08:29:55;3.63;;;3.33;;
13048;SDS011;6591;51.446;5.404;2023-07-24T08:32:22;3.95;;;3.60;;
13048;SDS011;6591;51.446;5.404;2023-07-24T08:34:50;4.25;;;3.03;;
13048;SDS011;6591;51.446;5.404;2023-07-24T08:37:17;3.90;;;3.47;;
13048;SDS011;6591;51.446;5.404;2023-07-24T08:39:44;5.47;;;3.53;;
13048;SDS011;6591;51.446;5.404;2023-07-24T08:42:12;4.05;;;3.60;;
13048;SDS011;6591;51.446;5.404;2023-07-24T08:44:40;4.32;;;3.92;;
13048;SDS011;6591;51.446;5.404;2023-07-24T08:47:12;4.97;;;3.45;;
13048;SDS011;6591;51.446;5.404;2023-07-24T08:49:42;4.03;;;3.65;;
13048;SDS011;6591;51.446;5.404;2023-07-24T08:52:11;4.07;;;3.67;;
13048;SDS011;6591;51.446;5.404;2023-07-24T08:54:56;4.20;;;3.80;;
13048;SDS011;6591;51.446;5.404;2023-07-24T08:57:27;3.80;;;3.50;;
13048;SDS011;6591;51.446;5.404;2023-07-24T08:59:54;4.43;;;4.03;;
13048;SDS011;6591;51.446;5.404;2023-07-24T09:02:21;5.72;;;3.70;;
13048;SDS011;6591;51.446;5.404;2023-07-24T09:04:50;4.70;;;4.30;;
13048;SDS011;6591;51.446;5.404;2023-07-24T09:07:20;4.45;;;4.05;;
13048;SDS011;6591;51.446;5.404;2023-07-24T09:09:48;5.80;;;4.25;;
13048;SDS011;6591;51.446;5.404;2023-07-24T09:12:16;4.28;;;3.88;;
13048;SDS011;6591;51.446;5.404;2023-07-24T09:14:43;4.60;;;4.20;;
13048;SDS011;6591;51.446;5.404;2023-07-24T09:17:12;4.40;;;4.00;;
13048;SDS011;6591;51.446;5.404;2023-07-24T09:19:39;4.40;;;4.00;;
13048;SDS011;6591;51.446;5.404;2023-07-24T09:22:07;4.70;;;4.30;;
13048;SDS011;6591;51.446;5.404;2023-07-24T09:24:51;3.28;;;2.97;;
13048;SDS011;6591;51.446;5.404;2023-07-24T09:27:23;3.47;;;3.17;;
13048;SDS011;6591;51.446;5.404;2023-07-24T09:29:56;4.30;;;3.35;;
13048;SDS011;6591;51.446;5.404;2023-07-24T09:32:25;3.95;;;3.55;;
13048;SDS011;6591;51.446;5.404;2023-07-24T09:34:53;3.90;;;3.50;;
13048;SDS011;6591;51.446;5.404;2023-07-24T09:37:27;3.83;;;3.53;;
13048;SDS011;6591;51.446;5.404;2023-07-24T09:40:03;3.95;;;3.55;;
13048;SDS011;6591;51.446;5.404;2023-07-24T09:42:31;3.33;;;3.03;;
13048;SDS011;6591;51.446;5.404;2023-07-24T09:45:18;3.88;;;3.30;;
13048;SDS011;6591;51.446;5.404;2023-07-24T09:47:49;3.50;;;3.05;;
13048;SDS011;6591;51.446;5.404;2023-07-24T09:50:22;2.88;;;2.65;;
13048;SDS011;6591;51.446;5.404;2023-07-24T09:52:50;3.47;;;2.72;;
13048;SDS011;6591;51.446;5.404;2023-07-24T09:55:21;2.60;;;2.40;;
13048;SDS011;6591;51.446;5.404;2023-07-24T09:57:56;2.65;;;2.45;;
13048;SDS011;6591;51.446;5.404;2023-07-24T10:00:25;2.85;;;2.65;;
13048;SDS011;6591;51.446;5.404;2023-07-24T10:02:53;3.78;;;2.80;;
13048;SDS011;6591;51.446;5.404;2023-07-24T10:05:21;3.70;;;2.88;;
13048;SDS011;6591;51.446;5.404;2023-07-24T10:07:49;3.08;;;2.88;;
13048;SDS011;6591;51.446;5.404;2023-07-24T10:10:18;2.85;;;2.65;;
13048;SDS011;6591;51.446;5.404;2023-07-24T10:12:47;2.90;;;2.70;;
13048;SDS011;6591;51.446;5.404;2023-07-24T10:15:16;3.05;;;2.75;;
13048;SDS011;6591;51.446;5.404;2023-07-24T10:17:46;2.78;;;2.58;;
13048;SDS011;6591;51.446;5.404;2023-07-24T10:20:15;3.47;;;3.17;;
13048;SDS011;6591;51.446;5.404;2023-07-24T10:22:46;3.70;;;2.88;;
13048;SDS011;6591;51.446;5.404;2023-07-24T10:25:14;3.00;;;2.80;;
13048;SDS011;6591;51.446;5.404;2023-07-24T10:27:44;3.20;;;2.90;;
13048;SDS011;6591;51.446;5.404;2023-07-24T10:30:13;3.05;;;2.85;;
13048;SDS011;6591;51.446;5.404;2023-07-24T10:33:03;3.22;;;2.92;;
13048;SDS011;6591;51.446;5.404;2023-07-24T10:35:41;2.80;;;2.60;;
13048;SDS011;6591;51.446;5.404;2023-07-24T10:38:13;3.60;;;3.30;;
13048;SDS011;6591;51.446;5.404;2023-07-24T10:40:44;3.42;;;3.22;;
13048;SDS011;6591;51.446;5.404;2023-07-24T10:43:18;3.40;;;3.10;;
13048;SDS011;6591;51.446;5.404;2023-07-24T10:45:51;3.50;;;3.20;;
13048;SDS011;6591;51.446;5.404;2023-07-24T10:48:21;3.38;;;3.08;;
13048;SDS011;6591;51.446;5.404;2023-07-24T10:50:51;4.57;;;3.70;;
13048;SDS011;6591;51.446;5.404;2023-07-24T10:53:44;4.20;;;3.90;;
13048;SDS011;6591;51.446;5.404;2023-07-24T10:56:17;4.30;;;3.90;;
13048;SDS011;6591;51.446;5.404;2023-07-24T10:58:44;4.75;;;4.35;;
13048;SDS011;6591;51.446;5.404;2023-07-24T11:01:12;4.38;;;3.97;;
13048;SDS011;6591;51.446;5.404;2023-07-24T11:03:43;4.35;;;3.95;;
13048;SDS011;6591;51.446;5.404;2023-07-24T11:06:14;4.05;;;3.75;;
13048;SDS011;6591;51.446;5.404;2023-07-24T11:08:54;3.78;;;3.47;;
13048;SDS011;6591;51.446;5.404;2023-07-24T11:11:30;3.90;;;3.38;;
13048;SDS011;6591;51.446;5.404;2023-07-24T11:14:02;3.70;;;3.40;;
13048;SDS011;6591;51.446;5.404;2023-07-24T11:16:30;3.78;;;3.38;;
13048;SDS011;6591;51.446;5.404;2023-07-24T11:19:00;3.38;;;3.08;;
13048;SDS011;6591;51.446;5.404;2023-07-24T11:21:28;3.70;;;3.40;;
13048;SDS011;6591;51.446;5.404;2023-07-24T11:23:56;3.65;;;3.35;;
13048;SDS011;6591;51.446;5.404;2023-07-24T11:26:24;3.67;;;3.38;;
13048;SDS011;6591;51.446;5.404;2023-07-24T11:28:53;4.05;;;3.65;;
13048;SDS011;6591;51.446;5.404;2023-07-24T11:31:20;4.80;;;3.75;;
13048;SDS011;6591;51.446;5.404;2023-07-24T11:33:48;4.22;;;3.83;;
13048;SDS011;6591;51.446;5.404;2023-07-24T11:36:28;4.50;;;3.70;;
13048;SDS011;6591;51.446;5.404;2023-07-24T11:38:55;4.20;;;3.80;;
13048;SDS011;6591;51.446;5.404;2023-07-24T11:41:22;4.63;;;4.22;;
13048;SDS011;6591;51.446;5.404;2023-07-24T11:43:50;5.00;;;4.55;;
13048;SDS011;6591;51.446;5.404;2023-07-24T11:46:24;4.35;;;3.95;;
13048;SDS011;6591;51.446;5.404;2023-07-24T11:48:53;6.57;;;4.40;;
13048;SDS011;6591;51.446;5.404;2023-07-24T11:51:25;5.40;;;4.13;;
13048;SDS011;6591;51.446;5.404;2023-07-24T11:54:11;4.95;;;4.55;;
13048;SDS011;6591;51.446;5.404;2023-07-24T11:56:44;5.40;;;4.90;;
13048;SDS011;6591;51.446;5.404;2023-07-24T11:59:12;5.05;;;4.65;;
13048;SDS011;6591;51.446;5.404;2023-07-24T12:01:53;6.07;;;5.40;;
13048;SDS011;6591;51.446;5.404;2023-07-24T12:04:21;6.18;;;5.57;;
13048;SDS011;6591;51.446;5.404;2023-07-24T12:06:48;6.07;;;5.53;;
13048;SDS011;6591;51.446;5.404;2023-07-24T12:09:16;6.05;;;5.55;;
13048;SDS011;6591;51.446;5.404;2023-07-24T12:11:44;5.07;;;4.63;;
13048;SDS011;6591;51.446;5.404;2023-07-24T12:14:13;5.68;;;5.20;;
13048;SDS011;6591;51.446;5.404;2023-07-24T12:16:44;5.40;;;4.88;;
13048;SDS011;6591;51.446;5.404;2023-07-24T12:19:11;6.25;;;5.65;;
13048;SDS011;6591;51.446;5.404;2023-07-24T12:21:44;5.85;;;5.35;;
13048;SDS011;6591;51.446;5.404;2023-07-24T12:24:12;5.72;;;4.70;;
13048;SDS011;6591;51.446;5.404;2023-07-24T12:26:39;5.75;;;5.25;;
13048;SDS011;6591;51.446;5.404;2023-07-24T12:29:06;5.20;;;4.70;;
13048;SDS011;6591;51.446;5.404;2023-07-24T12:31:33;5.60;;;5.10;;
13048;SDS011;6591;51.446;5.404;2023-07-24T12:34:01;5.38;;;4.88;;
13048;SDS011;6591;51.446;5.404;2023-07-24T12:36:31;5.78;;;4.72;;
13048;SDS011;6591;51.446;5.404;2023-07-24T12:38:59;5.10;;;4.70;;
13048;SDS011;6591;51.446;5.404;2023-07-24T12:41:26;6.07;;;5.53;;
13048;SDS011;6591;51.446;5.404;2023-07-24T12:43:54;5.75;;;5.03;;
13048;SDS011;6591;51.446;5.404;2023-07-24T12:46:21;5.55;;;5.05;;
13048;SDS011;6591;51.446;5.404;2023-07-24T12:48:49;5.82;;;5.20;;
13048;SDS011;6591;51.446;5.404;2023-07-24T12:51:18;5.18;;;4.57;;
13048;SDS011;6591;51.446;5.404;2023-07-24T12:53:46;5.68;;;5.18;;
13048;SDS011;6591;51.446;5.404;2023-07-24T12:56:30;5.90;;;5.30;;
13048;SDS011;6591;51.446;5.404;2023-07-24T12:58:57;6.00;;;5.40;;
13048;SDS011;6591;51.446;5.404;2023-07-24T13:01:27;5.90;;;5.40;;
13048;SDS011;6591;51.446;5.404;2023-07-24T13:03:58;6.13;;;5.60;;
13048;SDS011;6591;51.446;5.404;2023-07-24T13:06:26;5.70;;;5.20;;
13048;SDS011;6591;51.446;5.404;2023-07-24T13:08:54;5.57;;;5.05;;
13048;SDS011;6591;51.446;5.404;2023-07-24T13:11:21;6.72;;;5.15;;
13048;SDS011;6591;51.446;5.404;2023-07-24T13:13:48;5.45;;;5.00;;
13048;SDS011;6591;51.446;5.404;2023-07-24T13:16:16;10.90;;;5.40;;
13048;SDS011;6591;51.446;5.404;2023-07-24T13:18:44;5.43;;;4.95;;
13048;SDS011;6591;51.446;5.404;2023-07-24T13:21:11;4.70;;;4.30;;
13048;SDS011;6591;51.446;5.404;2023-07-24T13:23:40;4.53;;;4.13;;
13048;SDS011;6591;51.446;5.404;2023-07-24T13:26:08;4.75;;;4.25;;
13048;SDS011;6591;51.446;5.404;2023-07-24T13:28:37;4.43;;;4.03;;
13048;SDS011;6591;51.446;5.404;2023-07-24T13:31:16;4.35;;;3.95;;
13048;SDS011;6591;51.446;5.404;2023-07-24T13:33:46;4.13;;;3.72;;
13048;SDS011;6591;51.446;5.404;2023-07-24T13:36:13;4.10;;;3.80;;
13048;SDS011;6591;51.446;5.404;2023-07-24T13:38:40;4.18;;;3.65;;
13048;SDS011;6591;51.446;5.404;2023-07-24T13:41:08;4.45;;;3.97;;
13048;SDS011;6591;51.446;5.404;2023-07-24T13:43:35;3.95;;;3.60;;
13048;SDS011;6591;51.446;5.404;2023-07-24T13:46:02;3.75;;;3.42;;
13048;SDS011;6591;51.446;5.404;2023-07-24T13:48:29;3.88;;;3.58;;
13048;SDS011;6591;51.446;5.404;2023-07-24T13:50:57;3.72;;;3.42;;
13048;SDS011;6591;51.446;5.404;2023-07-24T13:53:24;3.63;;;3.33;;
13048;SDS011;6591;51.446;5.404;2023-07-24T13:55:51;5.03;;;3.85;;
13048;SDS011;6591;51.446;5.404;2023-07-24T13:58:18;5.57;;;4.18;;
13048;SDS011;6591;51.446;5.404;2023-07-24T14:00:45;8.77;;;4.50;;
13048;SDS011;6591;51.446;5.404;2023-07-24T14:03:12;5.18;;;4.00;;
13048;SDS011;6591;51.446;5.404;2023-07-24T14:05:40;4.72;;;3.40;;
13048;SDS011;6591;51.446;5.404;2023-07-24T14:08:07;4.88;;;3.30;;
13048;SDS011;6591;51.446;5.404;2023-07-24T14:10:35;3.90;;;2.83;;
13048;SDS011;6591;51.446;5.404;2023-07-24T14:13:02;3.55;;;2.80;;
13048;SDS011;6591;51.446;5.404;2023-07-24T14:15:30;3.33;;;2.95;;
13048;SDS011;6591;51.446;5.404;2023-07-24T14:17:57;3.15;;;2.70;;
13048;SDS011;6591;51.446;5.404;2023-07-24T14:20:24;2.78;;;2.40;;
13048;SDS011;6591;51.446;5.404;2023-07-24T14:22:51;2.83;;;2.60;;
13048;SDS011;6591;51.446;5.404;2023-07-24T14:25:18;2.47;;;2.13;;
13048;SDS011;6591;51.446;5.404;2023-07-24T14:27:45;3.67;;;2.63;;
13048;SDS011;6591;51.446;5.404;2023-07-24T14:30:13;2.83;;;2.63;;
13048;SDS011;6591;51.446;5.404;2023-07-24T14:32:40;2.40;;;2.20;;
13048;SDS011;6591;51.446;5.404;2023-07-24T14:35:10;3.20;;;2.90;;
13048;SDS011;6591;51.446;5.404;2023-07-24T14:37:37;2.90;;;2.70;;
13048;SDS011;6591;51.446;5.404;2023-07-24T14:40:05;2.53;;;2.33;;
13048;SDS011;6591;51.446;5.404;2023-07-24T14:42:32;3.20;;;2.90;;
13048;SDS011;6591;51.446;5.404;2023-07-24T14:44:59;2.72;;;2.53;;
13048;SDS011;6591;51.446;5.404;2023-07-24T14:47:29;2.72;;;2.53;;
13048;SDS011;6591;51.446;5.404;2023-07-24T14:49:56;3.65;;;3.05;;
13048;SDS011;6591;51.446;5.404;2023-07-24T14:52:24;4.28;;;2.92;;
13048;SDS011;6591;51.446;5.404;2023-07-24T14:54:51;3.85;;;3.38;;
13048;SDS011;6591;51.446;5.404;2023-07-24T14:57:18;5.40;;;3.78;;
13048;SDS011;6591;51.446;5.404;2023-07-24T14:59:51;4.10;;;3.70;;
13048;SDS011;6591;51.446;5.404;2023-07-24T15:02:19;4.75;;;3.65;;
13048;SDS011;6591;51.446;5.404;2023-07-24T15:04:46;5.13;;;3.75;;
13048;SDS011;6591;51.446;5.404;2023-07-24T15:07:13;4.03;;;3.33;;
13048;SDS011;6591;51.446;5.404;2023-07-24T15:09:41;4.45;;;4.00;;
13048;SDS011;6591;51.446;5.404;2023-07-24T15:12:09;4.38;;;3.90;;
13048;SDS011;6591;51.446;5.404;2023-07-24T15:14:37;4.50;;;3.60;;
13048;SDS011;6591;51.446;5.404;2023-07-24T15:17:04;3.92;;;3.47;;
13048;SDS011;6591;51.446;5.404;2023-07-24T15:19:31;5.10;;;4.15;;